createdAt,value
2018-03-27T00:00:30.673Z,2.60
2018-03-27T00:02:56.849Z,2.60
2018-03-27T00:05:23.001Z,2.60
2018-03-27T00:07:49.177Z,2.60
2018-03-27T00:10:16.077Z,2.60
2018-03-27T00:12:42.258Z,2.50
2018-03-27T00:15:08.409Z,2.60
2018-03-27T00:17:34.574Z,2.60
2018-03-27T00:20:00.716Z,2.60
2018-03-27T00:22:27.670Z,2.60
2018-03-27T00:24:54.565Z,2.60
2018-03-27T00:27:33.022Z,2.60
2018-03-27T00:30:12.029Z,2.60
2018-03-27T00:32:50.481Z,2.50
2018-03-27T00:35:28.893Z,2.60
2018-03-27T00:38:07.621Z,2.60
2018-03-27T00:40:41.880Z,2.60
2018-03-27T00:43:08.899Z,2.60
2018-03-27T00:45:35.102Z,2.60
2018-03-27T00:48:01.292Z,2.60
2018-03-27T00:50:27.448Z,2.60
2018-03-27T00:52:54.359Z,2.60
2018-03-27T00:55:20.526Z,2.60
2018-03-27T00:57:46.698Z,2.60
2018-03-27T01:00:12.878Z,2.60
2018-03-27T01:02:39.044Z,2.60
2018-03-27T01:05:09.164Z,2.60
2018-03-27T01:07:35.353Z,2.60
2018-03-27T01:10:01.533Z,2.70
2018-03-27T01:12:27.711Z,2.60
2018-03-27T01:14:53.872Z,2.70
2018-03-27T01:17:20.030Z,2.70
2018-03-27T01:19:46.236Z,2.70
2018-03-27T01:22:12.408Z,2.70
2018-03-27T01:24:38.609Z,2.70
2018-03-27T01:27:05.524Z,2.70
2018-03-27T01:29:31.695Z,2.60
2018-03-27T01:31:58.633Z,2.70
2018-03-27T01:34:25.536Z,2.70
2018-03-27T01:36:51.733Z,2.60
2018-03-27T01:39:17.904Z,2.70
2018-03-27T01:41:44.085Z,2.70
2018-03-27T01:44:10.997Z,2.70
2018-03-27T01:46:37.877Z,2.70
2018-03-27T01:49:04.044Z,2.60
2018-03-27T01:51:30.208Z,2.70
2018-03-27T01:53:56.384Z,2.70
2018-03-27T01:56:22.553Z,2.70
2018-03-27T01:58:49.478Z,2.70
2018-03-27T02:01:15.930Z,2.60
2018-03-27T02:03:42.348Z,2.70
2018-03-27T02:06:09.265Z,2.70
2018-03-27T02:08:35.585Z,2.60
2018-03-27T02:11:08.829Z,2.70
2018-03-27T02:13:41.240Z,2.70
2018-03-27T02:16:13.613Z,2.70
2018-03-27T02:18:45.943Z,2.60
2018-03-27T02:21:18.249Z,2.70
2018-03-27T02:23:44.458Z,2.70
2018-03-27T02:26:10.633Z,2.70
2018-03-27T02:28:36.802Z,2.70
2018-03-27T02:31:02.946Z,2.70
2018-03-27T02:33:29.135Z,2.60
2018-03-27T02:35:56.037Z,2.60
2018-03-27T02:38:22.190Z,2.60
2018-03-27T02:40:48.400Z,2.60
2018-03-27T02:43:14.567Z,2.60
2018-03-27T02:45:40.872Z,2.60
2018-03-27T02:48:07.772Z,2.60
2018-03-27T02:50:33.958Z,2.60
2018-03-27T02:53:00.850Z,2.60
2018-03-27T02:55:27.040Z,2.60
2018-03-27T02:57:53.285Z,2.60
2018-03-27T03:00:19.484Z,2.60
2018-03-27T03:02:45.645Z,2.60
2018-03-27T03:05:12.531Z,2.60
2018-03-27T03:07:38.684Z,2.60
2018-03-27T03:10:04.842Z,2.60
2018-03-27T03:12:30.998Z,2.60
2018-03-27T03:14:57.189Z,2.60
2018-03-27T03:17:23.370Z,2.60
2018-03-27T03:19:50.288Z,2.60
2018-03-27T03:22:16.437Z,2.50
2018-03-27T03:24:42.940Z,2.50
2018-03-27T03:27:09.138Z,2.50
2018-03-27T03:29:35.296Z,2.50
2018-03-27T03:32:01.486Z,2.50
2018-03-27T03:34:27.694Z,2.50
2018-03-27T03:36:53.884Z,2.50
2018-03-27T03:39:20.134Z,2.40
2018-03-27T03:41:46.295Z,2.40
2018-03-27T03:44:12.444Z,2.40
2018-03-27T03:46:38.597Z,2.30
2018-03-27T03:49:04.761Z,2.30
2018-03-27T03:51:30.949Z,2.30
2018-03-27T03:53:57.093Z,2.30
2018-03-27T03:56:23.297Z,2.20
2018-03-27T03:58:49.444Z,2.20
2018-03-27T04:01:15.613Z,2.20
2018-03-27T04:03:41.996Z,2.20
2018-03-27T04:06:08.892Z,2.10
2018-03-27T04:08:35.714Z,2.10
2018-03-27T04:11:01.925Z,2.10
2018-03-27T04:13:28.819Z,2.10
2018-03-27T04:15:54.984Z,2.00
2018-03-27T04:18:22.089Z,2.10
2018-03-27T04:20:48.245Z,2.00
2018-03-27T04:23:14.395Z,2.00
2018-03-27T04:25:40.593Z,2.00
2018-03-27T04:28:06.769Z,2.10
2018-03-27T04:30:32.929Z,2.00
2018-03-27T04:32:59.104Z,2.00
2018-03-27T04:35:25.265Z,2.00
2018-03-27T04:37:51.437Z,2.00
2018-03-27T04:40:17.629Z,2.00
2018-03-27T04:42:43.802Z,1.90
2018-03-27T04:45:10.005Z,1.90
2018-03-27T04:47:36.199Z,1.90
2018-03-27T04:50:02.392Z,1.90
2018-03-27T04:52:28.568Z,1.90
2018-03-27T04:54:54.782Z,1.90
2018-03-27T04:57:20.923Z,1.90
2018-03-27T04:59:47.093Z,1.90
2018-03-27T05:02:13.262Z,1.90
2018-03-27T05:04:39.476Z,1.90
2018-03-27T05:07:05.617Z,1.80
2018-03-27T05:09:31.808Z,1.90
2018-03-27T05:11:57.981Z,1.90
2018-03-27T05:14:24.137Z,1.90
2018-03-27T05:16:51.033Z,1.90
2018-03-27T05:19:17.179Z,1.80
2018-03-27T05:21:43.353Z,1.90
2018-03-27T05:24:09.506Z,1.90
2018-03-27T05:26:35.705Z,1.90
2018-03-27T05:29:01.841Z,1.90
2018-03-27T05:31:28.017Z,1.90
2018-03-27T05:33:54.173Z,1.90
2018-03-27T05:36:20.352Z,1.90
2018-03-27T05:38:46.502Z,1.90
2018-03-27T05:41:13.406Z,2.00
2018-03-27T05:43:39.558Z,1.90
2018-03-27T05:46:05.743Z,1.90
2018-03-27T05:48:31.913Z,1.90
2018-03-27T05:50:58.084Z,2.00
2018-03-27T05:53:24.241Z,1.90
2018-03-27T05:55:50.469Z,1.90
2018-03-27T05:58:16.602Z,2.00
2018-03-27T06:00:42.796Z,2.00
2018-03-27T06:03:08.933Z,2.00
2018-03-27T06:05:35.093Z,2.00
2018-03-27T06:08:01.229Z,2.00
2018-03-27T06:10:28.139Z,2.00
2018-03-27T06:12:54.317Z,2.00
2018-03-27T06:15:20.489Z,2.00
2018-03-27T06:17:46.690Z,2.00
2018-03-27T06:20:12.860Z,2.10
2018-03-27T06:22:39.000Z,2.10
2018-03-27T06:25:05.192Z,2.10
2018-03-27T06:27:31.356Z,2.10
2018-03-27T06:29:58.313Z,2.20
2018-03-27T06:32:25.222Z,2.20
2018-03-27T06:34:51.393Z,2.10
2018-03-27T06:37:17.580Z,2.20
2018-03-27T06:39:43.728Z,2.30
2018-03-27T06:42:10.686Z,2.40
2018-03-27T06:44:36.837Z,2.30
2018-03-27T06:47:03.027Z,2.40
2018-03-27T06:49:29.917Z,2.50
2018-03-27T06:51:56.072Z,2.50
2018-03-27T06:54:22.217Z,2.60
2018-03-27T06:56:49.129Z,2.80
2018-03-27T06:59:15.268Z,2.70
2018-03-27T07:01:41.433Z,2.80
2018-03-27T07:04:07.640Z,2.90
2018-03-27T07:06:33.794Z,3.00
2018-03-27T07:08:59.984Z,3.10
2018-03-27T07:11:26.916Z,3.30
2018-03-27T07:13:53.079Z,3.20
2018-03-27T07:16:19.256Z,3.30
2018-03-27T07:18:45.441Z,3.40
2018-03-27T07:21:11.605Z,3.50
2018-03-27T07:23:37.774Z,3.60
2018-03-27T07:26:04.713Z,3.80
2018-03-27T07:28:31.617Z,3.90
2018-03-27T07:30:57.807Z,3.90
2018-03-27T07:33:23.969Z,4.00
2018-03-27T07:35:50.138Z,4.20
2018-03-27T07:38:16.296Z,4.30
2018-03-27T07:40:42.490Z,4.40
2018-03-27T07:43:09.364Z,4.70
2018-03-27T07:45:35.533Z,4.70
2018-03-27T07:48:01.690Z,4.90
2018-03-27T07:50:28.604Z,5.20
2018-03-27T07:52:54.749Z,5.20
2018-03-27T07:55:21.650Z,5.60
2018-03-27T07:57:47.833Z,5.60
2018-03-27T08:00:14.001Z,5.80
2018-03-27T15:13:35.301Z,13.00
2018-03-27T15:16:02.820Z,13.00
2018-03-27T15:18:30.355Z,12.90
2018-03-27T15:20:57.925Z,12.90
2018-03-27T15:23:25.462Z,12.80
2018-03-27T15:25:52.975Z,12.80
2018-03-27T15:28:21.302Z,12.70
2018-03-27T15:30:48.813Z,12.70
2018-03-27T15:33:17.124Z,12.60
2018-03-27T15:35:44.651Z,12.60
2018-03-27T15:38:13.358Z,12.50
2018-03-27T15:40:40.877Z,12.50
2018-03-27T15:43:09.185Z,12.40
2018-03-27T15:45:36.697Z,12.30
2018-03-27T15:48:04.256Z,12.30
2018-03-27T15:50:31.770Z,12.30
2018-03-27T15:52:59.310Z,12.20
2018-03-27T15:55:26.833Z,12.20
2018-03-27T15:57:54.373Z,12.20
2018-03-27T16:00:21.890Z,12.10
2018-03-27T16:02:49.402Z,12.10
2018-03-27T16:05:16.928Z,12.00
2018-03-27T16:07:44.483Z,12.00
2018-03-27T16:10:12.030Z,12.00
2018-03-27T16:12:39.572Z,11.90
2018-03-27T16:15:07.094Z,11.90
2018-03-27T16:17:34.606Z,11.90
2018-03-27T16:20:02.127Z,11.80
2018-03-27T16:22:30.412Z,11.80
2018-03-27T16:24:58.697Z,11.70
2018-03-27T16:27:26.254Z,11.70
2018-03-27T16:29:53.738Z,11.70
2018-03-27T16:32:21.257Z,11.60
2018-03-27T16:34:49.533Z,11.60
2018-03-27T16:37:17.060Z,11.50
2018-03-27T16:39:44.621Z,11.60
2018-03-27T16:42:12.115Z,11.60
2018-03-27T16:44:39.650Z,11.50
2018-03-27T16:47:07.164Z,11.50
2018-03-27T16:49:34.673Z,11.50
2018-03-27T16:52:02.968Z,11.40
2018-03-27T16:54:30.480Z,11.30
2018-03-27T16:56:58.110Z,11.30
2018-03-27T16:59:25.640Z,11.30
2018-03-27T17:01:53.152Z,11.30
2018-03-27T17:04:20.693Z,11.30
2018-03-27T17:06:48.225Z,11.20
2018-03-27T17:09:16.585Z,11.20
2018-03-27T17:11:44.860Z,11.20
2018-03-27T17:14:13.158Z,11.10
2018-03-27T17:16:40.674Z,11.10
2018-03-27T17:19:08.978Z,11.10
2018-03-27T17:21:36.504Z,11.00
2018-03-27T17:24:04.033Z,11.10
2018-03-27T17:26:31.558Z,11.10
2018-03-27T17:28:59.100Z,11.10
2018-03-27T17:31:26.653Z,11.00
2018-03-27T17:33:54.987Z,11.00
2018-03-27T17:36:22.510Z,10.90
2018-03-27T17:38:50.045Z,11.00
2018-03-27T17:41:18.331Z,10.90
2018-03-27T17:43:45.865Z,10.90
2018-03-27T17:46:13.381Z,10.90
2018-03-27T17:48:42.325Z,10.90
2018-03-27T17:51:10.620Z,10.80
2018-03-27T17:53:38.240Z,10.80
2018-03-27T17:56:05.750Z,10.80
2018-03-27T17:58:33.282Z,10.80
2018-03-27T18:01:01.563Z,10.70
2018-03-27T18:03:29.849Z,10.70
2018-03-27T18:05:57.373Z,10.70
2018-03-27T18:08:24.887Z,10.70
2018-03-27T18:10:52.400Z,10.70
2018-03-27T18:13:20.690Z,10.60
2018-03-27T18:15:49.042Z,10.60
2018-03-27T18:18:16.562Z,10.60
2018-03-27T18:20:44.081Z,10.60
2018-03-27T18:23:12.370Z,10.50
2018-03-27T18:25:39.884Z,10.50
2018-03-27T18:28:07.452Z,10.50
2018-03-27T18:30:34.990Z,10.50
2018-03-27T18:33:02.505Z,10.50
2018-03-27T18:35:30.017Z,10.50
2018-03-27T18:37:58.100Z,10.40
2018-03-27T18:40:30.416Z,10.40
2018-03-27T18:42:57.924Z,10.30
2018-03-27T18:45:26.209Z,10.30
2018-03-27T18:47:54.492Z,10.30
2018-03-27T18:50:22.795Z,10.20
2018-03-27T18:52:50.330Z,10.20
2018-03-27T18:55:18.608Z,10.20
2018-03-27T18:57:46.456Z,10.20
2018-03-27T19:00:14.748Z,10.10
2018-03-27T19:02:43.030Z,10.10
2018-03-27T19:05:10.566Z,10.00
2018-03-27T19:07:38.848Z,10.10
2018-03-27T19:10:06.385Z,10.00
2018-03-27T19:12:33.901Z,10.00
2018-03-27T19:15:01.434Z,10.00
2018-03-27T19:17:28.946Z,9.90
2018-03-27T19:19:56.477Z,9.90
2018-03-27T19:22:23.994Z,9.90
2018-03-27T19:24:52.298Z,9.80
2018-03-27T19:27:19.807Z,9.70
2018-03-27T19:29:47.342Z,9.70
2018-03-27T19:32:14.857Z,9.70
2018-03-27T19:34:42.386Z,9.70
2018-03-27T19:37:09.905Z,9.70
2018-03-27T19:39:37.450Z,9.60
2018-03-27T19:42:04.963Z,9.60
2018-03-27T19:44:32.556Z,9.60
2018-03-27T19:47:00.034Z,9.60
2018-03-27T19:52:04.300Z,9.50
2018-03-27T19:54:31.822Z,9.50
2018-03-27T19:56:59.329Z,9.50
2018-03-27T19:59:26.881Z,9.50
2018-03-27T20:01:54.388Z,9.40
2018-03-27T20:04:21.925Z,9.40
2018-03-27T20:06:49.433Z,9.40
2018-03-27T20:09:17.529Z,9.40
2018-03-27T20:11:46.534Z,9.30
2018-03-27T20:14:14.404Z,9.30
2018-03-27T20:16:43.005Z,9.30
2018-03-27T20:19:11.095Z,9.20
2018-03-27T20:21:39.303Z,9.30
2018-03-27T20:24:07.290Z,9.20
2018-03-27T20:26:36.542Z,9.20
2018-03-27T20:29:05.647Z,9.10
2018-03-27T20:31:33.455Z,9.20
2018-03-27T20:34:02.451Z,9.10
2018-03-27T20:36:30.345Z,9.10
2018-03-27T20:38:59.553Z,9.10
2018-03-27T20:41:27.701Z,9.10
2018-03-27T20:43:55.915Z,9.10
2018-03-27T20:46:23.881Z,9.10
2018-03-27T20:48:52.871Z,9.00
2018-03-27T20:51:20.508Z,9.00
2018-03-27T20:53:48.250Z,9.00
2018-03-27T20:56:16.130Z,9.00
2018-03-27T20:58:47.244Z,8.90
2018-03-27T21:01:14.854Z,8.90
2018-03-27T21:03:43.632Z,8.90
2018-03-27T21:06:11.160Z,8.90
2018-03-27T21:08:38.690Z,8.90
2018-03-27T21:11:06.226Z,8.90
2018-03-27T21:13:33.738Z,8.90
2018-03-27T21:16:01.298Z,8.80
2018-03-27T21:18:28.821Z,8.80
2018-03-27T21:20:56.334Z,8.80
2018-03-27T21:23:23.850Z,8.70
2018-03-27T21:25:51.380Z,8.70
2018-03-27T21:28:18.903Z,8.70
2018-03-27T21:30:46.427Z,8.70
2018-03-27T21:33:14.700Z,8.60
2018-03-27T21:35:42.984Z,8.60
2018-03-27T21:38:11.265Z,8.60
2018-03-27T21:40:38.898Z,8.50
2018-03-27T21:43:06.424Z,8.50
2018-03-27T21:45:33.945Z,8.50
2018-03-27T21:48:01.521Z,8.50
2018-03-27T21:50:29.030Z,8.50
2018-03-27T21:52:56.547Z,8.40
2018-03-27T21:55:24.082Z,8.40
2018-03-27T21:57:51.617Z,8.40
2018-03-27T22:00:19.904Z,8.40
2018-03-27T22:02:47.440Z,8.30
2018-03-27T22:05:14.960Z,8.40
2018-03-27T22:07:42.504Z,8.40
2018-03-27T22:10:10.015Z,8.40
2018-03-27T22:12:37.568Z,8.30
2018-03-27T22:15:05.087Z,8.30
2018-03-27T22:17:32.653Z,8.30
2018-03-27T22:20:00.169Z,8.30
2018-03-27T22:22:28.445Z,8.30
2018-03-27T22:24:55.964Z,8.20
2018-03-27T22:27:23.494Z,8.30
2018-03-27T22:29:51.006Z,8.20
2018-03-27T22:32:19.289Z,8.20
2018-03-27T22:34:47.573Z,8.20
2018-03-27T22:37:15.084Z,8.10
2018-03-27T22:39:42.618Z,8.20
2018-03-27T22:42:10.134Z,8.20
2018-03-27T22:44:38.409Z,8.20
2018-03-27T22:47:06.681Z,8.10
2018-03-27T22:49:34.958Z,8.10
2018-03-27T22:52:03.320Z,8.10
2018-03-27T22:54:30.880Z,8.10
2018-03-27T22:56:58.393Z,8.10
2018-03-27T22:59:25.943Z,8.10
2018-03-27T23:01:53.834Z,8.10
2018-03-27T23:04:21.368Z,8.10
2018-03-27T23:06:48.874Z,8.00
2018-03-27T23:09:16.412Z,8.00
2018-03-27T23:11:43.927Z,8.00
2018-03-27T23:14:11.466Z,8.00
2018-03-27T23:16:39.741Z,8.00
2018-03-27T23:19:08.071Z,8.00
2018-03-27T23:21:35.592Z,7.90
2018-03-27T23:24:03.113Z,8.00
2018-03-27T23:26:30.632Z,8.00
2018-03-27T23:28:58.152Z,8.00
2018-03-27T23:31:25.689Z,8.00
2018-03-27T23:33:53.208Z,8.00
2018-03-27T23:36:20.737Z,7.90
2018-03-27T23:38:48.261Z,8.00
2018-03-27T23:41:15.808Z,8.00
2018-03-27T23:43:43.334Z,8.00
2018-03-27T23:46:10.862Z,7.90
2018-03-27T23:48:38.389Z,7.90
2018-03-27T23:51:05.903Z,7.90
2018-03-27T23:53:33.688Z,8.00
2018-03-27T23:56:01.236Z,7.90
2018-03-27T23:58:28.741Z,7.90
